Terminal Aerodrome Forecast
Issued by NWS Charleston, WV

Current Version | Previous Version | Graphics & Text | Print | Product List | Glossary On
Versions: 1 2 3 4 5 6 7 8 9 10 11 12 13 14 15 16 17 18 19 20 21
000
FTUS41 KRLX 271508 AAB
TAFBKW
TAF AMD
KBKW 271508Z 2715/2812 00000KT 4SM SHRA OVC023
      TEMPO 2715/2717 VRB15G30KT 2SM TSRA OVC019CB
     FM271700 25006KT 6SM -SHRA OVC025
     FM271900 26006KT P6SM VCSH OVC025
     FM280000 VRB06KT 3SM SHRA VCTS OVC035CB
     FM280700 VRB03KT 5SM SHRA OVC025=

USA.gov is the U.S. government's official web portal to all federal, state and local government web resources and services.